Aérodrome :
LOGIN :

S'inscrire | Disclaimer

   EN    FR    IT 

 










Légende :    VFR   VFR Marginal   IFR   IFR Intensif   IFR Très Intensif
Visi : 
Plafond : 
>= 8 km
>= 3000ft
5 à 8 km
1000 à 3000 ft
1500m à 5 km
500 à 1000 ft
800 à 1500m
200 à 500 ft
< 800m
< 200 ft
Symboles :   Orages  Brouillard  Fortes neiges  Fortes précipitations  Vent > 20 kt
SIGMETs :   Divers  Orages  Givrage  Turbulence  Onde Orograph.  Cendres Volcan.







- Altitude de l'aérodrome : 286 ft
- Code IATA : FFD


EGVA - RAF Fairford

DERNIER METAR :
  • 151231Z AUTO 19010KT 9999 OVC014 13/10 A3010 RMK AO2 SLP197 $

METARs EXPIRÉS :
  • 151156Z AUTO 18010KT 9999 BKN016 14/10 A3010 RMK AO2 BKN V SCT SLP197 T01370099 10137 20103 58004 $
  • 151101Z AUTO 18011KT 9999 SCT015 13/09 A3011 RMK AO2 SLP200 $
  • 151036Z AUTO 18008KT 9999 BKN015 13/10 A3011 RMK AO2 SLP200 $
  • 150956Z AUTO 16006KT 9999 BKN014 12/09 A3012 RMK AO2 SLP204 T01200090 $
  • 150951Z AUTO 16006KT 9999 BKN014 12/09 A3012 RMK AO2 SLP204 $

Prévision TAF périmée.
Pas de NOTAMs connus pour ce terrain.



MET'MAP, la Météo Aéronautique d'un coup d'oeil ! - Copyright ORBIFLY Décembre 2007 - Disclaimer

ORBIFLY MET'MAP TEAM :

Programmation & Développement : Alexandra Zaïnal
Conception & Développement : Baudouin d'Aumeries
Co-Programmation & Développement : Marc-Olivier Méhu
Soutien technique & logistique : Manuel Goepfert

Contact : metmap@orbifly.com




SOURCES & CREDITS :

   NOAA